TimeCDT,TemperatureF,Dew PointF,Humidity,Sea Level PressureIn,VisibilityMPH,Wind Direction,Wind SpeedMPH,Gust SpeedMPH,PrecipitationIn,Events,Conditions,WindDirDegrees,DateUTC
12:15 AM,31.6,26.6,82,29.90,10.0,WNW,4.6,-,N/A,,Overcast,290,2013-10-23 05:15:00
12:35 AM,31.6,27.0,83,29.90,10.0,West,5.8,-,N/A,,Overcast,280,2013-10-23 05:35:00
12:55 AM,31.6,26.6,82,29.89,10.0,West,4.6,-,N/A,,Overcast,280,2013-10-23 05:55:00
1:15 AM,31.5,26.6,82,29.89,10.0,West,4.6,-,N/A,,Overcast,280,2013-10-23 06:15:00
1:35 AM,31.5,26.4,82,29.89,10.0,WNW,6.9,-,N/A,,Overcast,290,2013-10-23 06:35:00
1:55 AM,31.5,26.4,82,29.89,10.0,West,5.8,-,N/A,,Overcast,280,2013-10-23 06:55:00
2:15 AM,31.1,26.4,83,29.89,10.0,WNW,4.6,-,N/A,,Overcast,300,2013-10-23 07:15:00
2:35 AM,31.1,26.4,83,29.88,10.0,WNW,5.8,-,N/A,Snow,Light Snow,290,2013-10-23 07:35:00
2:55 AM,31.1,26.2,82,29.88,10.0,WNW,6.9,-,N/A,Snow,Light Snow,290,2013-10-23 07:55:00
3:15 AM,30.7,26.4,84,29.88,10.0,WNW,5.8,-,N/A,Snow,Light Snow,290,2013-10-23 08:15:00
3:35 AM,30.4,28.9,94,29.88,1.5,WNW,4.6,-,N/A,Snow,Light Snow,290,2013-10-23 08:35:00
3:55 AM,30.2,29.3,96,29.87,10.0,West,4.6,-,N/A,Snow,Light Snow,280,2013-10-23 08:55:00
4:15 AM,30.0,28.9,96,29.87,10.0,Calm,Calm,-,N/A,,Overcast,0,2013-10-23 09:15:00
4:35 AM,30.0,28.9,96,29.87,10.0,West,3.5,-,N/A,,Overcast,270,2013-10-23 09:35:00
4:55 AM,30.2,28.8,94,29.87,10.0,West,4.6,-,N/A,,Overcast,280,2013-10-23 09:55:00
5:15 AM,30.2,28.4,93,29.87,7.0,WNW,4.6,-,N/A,Snow,Light Snow,290,2013-10-23 10:15:00
5:35 AM,30.2,28.4,93,29.87,7.0,WNW,5.8,-,N/A,Snow,Light Snow,300,2013-10-23 10:35:00
5:55 AM,30.2,27.7,90,29.87,5.0,WNW,5.8,-,N/A,Snow,Light Snow,300,2013-10-23 10:55:00
6:15 AM,30.0,26.8,88,29.87,10.0,West,3.5,-,N/A,Snow,Light Snow,280,2013-10-23 11:15:00
6:35 AM,30.0,26.6,87,29.87,10.0,West,4.6,-,N/A,,Overcast,260,2013-10-23 11:35:00
6:55 AM,30.0,25.3,83,29.87,10.0,West,4.6,-,N/A,,Overcast,260,2013-10-23 11:55:00
7:15 AM,29.7,24.1,80,29.87,10.0,West,6.9,-,N/A,,Mostly Cloudy,270,2013-10-23 12:15:00
7:35 AM,28.8,23.5,81,29.86,10.0,West,8.1,-,N/A,,Overcast,260,2013-10-23 12:35:00
7:55 AM,28.0,23.7,84,29.87,10.0,West,4.6,-,N/A,,Overcast,260,2013-10-23 12:55:00
8:15 AM,29.7,24.3,80,29.87,10.0,West,6.9,-,N/A,,Scattered Clouds,270,2013-10-23 13:15:00
8:35 AM,29.8,24.6,81,29.87,10.0,West,6.9,-,N/A,,Scattered Clouds,280,2013-10-23 13:35:00
8:55 AM,31.1,25.0,78,29.88,10.0,WNW,5.8,-,N/A,,Scattered Clouds,300,2013-10-23 13:55:00
9:15 AM,32.0,25.7,78,29.88,10.0,West,9.2,-,N/A,,Scattered Clouds,280,2013-10-23 14:15:00
9:35 AM,31.8,25.9,79,29.88,10.0,West,9.2,-,N/A,,Overcast,280,2013-10-23 14:35:00
9:55 AM,32.0,26.2,79,29.88,10.0,West,5.8,-,N/A,,Overcast,280,2013-10-23 14:55:00
10:15 AM,32.2,26.4,79,29.88,10.0,West,11.5,16.1,N/A,,Overcast,270,2013-10-23 15:15:00
10:35 AM,32.2,26.6,80,29.88,10.0,WNW,6.9,-,N/A,,Overcast,290,2013-10-23 15:35:00
10:55 AM,32.9,27.0,79,29.88,10.0,WNW,9.2,-,N/A,,Overcast,290,2013-10-23 15:55:00
11:15 AM,32.9,26.6,78,29.89,10.0,WNW,6.9,-,N/A,,Overcast,290,2013-10-23 16:15:00
11:35 AM,32.9,26.4,77,29.88,10.0,WNW,6.9,-,N/A,,Overcast,300,2013-10-23 16:35:00
11:55 AM,33.4,26.8,77,29.89,4.0,NW,13.8,18.4,N/A,Snow,Light Snow,320,2013-10-23 16:55:00
12:15 PM,32.0,28.6,87,29.89,1.8,NW,8.1,-,N/A,Snow,Light Snow,310,2013-10-23 17:15:00
12:35 PM,32.0,27.3,83,29.89,1.2,WNW,8.1,-,N/A,Snow,Light Snow,300,2013-10-23 17:35:00
12:55 PM,32.0,29.3,90,29.88,1.5,WNW,5.8,-,N/A,Snow,Light Snow,290,2013-10-23 17:55:00
1:15 PM,33.3,30.4,89,29.88,2.5,WNW,9.2,-,N/A,Snow,Light Snow,300,2013-10-23 18:15:00
1:35 PM,34.9,28.0,76,29.88,5.0,NNW,11.5,19.6,0.01,Snow,Light Snow,330,2013-10-23 18:35:00
1:55 PM,32.9,27.1,79,29.88,3.0,WNW,11.5,20.7,0.01,Snow,Light Snow,290,2013-10-23 18:55:00
2:15 PM,34.3,26.4,73,29.88,10.0,WNW,9.2,-,N/A,,Overcast,300,2013-10-23 19:15:00
2:35 PM,33.8,26.2,74,29.88,10.0,West,5.8,-,N/A,,Overcast,280,2013-10-23 19:35:00
2:55 PM,35.2,26.8,71,29.88,10.0,NNW,17.3,-,N/A,Snow,Light Snow,330,2013-10-23 19:55:00
3:15 PM,32.9,26.6,78,29.88,7.0,NW,12.7,-,N/A,Snow,Light Snow,320,2013-10-23 20:15:00
3:35 PM,32.9,24.3,71,29.89,10.0,NW,9.2,16.1,N/A,,Overcast,310,2013-10-23 20:35:00
3:55 PM,33.3,23.4,67,29.89,10.0,NW,10.4,-,N/A,,Overcast,320,2013-10-23 20:55:00
4:15 PM,33.4,23.4,67,29.89,10.0,NW,11.5,-,N/A,,Overcast,320,2013-10-23 21:15:00
4:35 PM,33.1,23.4,67,29.90,10.0,NW,8.1,-,N/A,,Overcast,310,2013-10-23 21:35:00
4:55 PM,32.9,24.1,70,29.90,10.0,NW,10.4,-,N/A,Snow,Light Snow,320,2013-10-23 21:55:00
5:15 PM,32.5,23.5,69,29.90,10.0,NW,8.1,-,N/A,,Overcast,310,2013-10-23 22:15:00
5:35 PM,32.2,23.9,72,29.91,10.0,WNW,6.9,-,N/A,,Overcast,300,2013-10-23 22:35:00
5:55 PM,32.0,24.8,75,29.91,10.0,WNW,5.8,-,N/A,,Overcast,290,2013-10-23 22:55:00
6:15 PM,32.0,24.8,75,29.91,10.0,WNW,5.8,-,N/A,,Overcast,300,2013-10-23 23:15:00
6:35 PM,32.0,23.0,69,29.91,10.0,WNW,8.1,-,N/A,,Overcast,290,2013-10-23 23:35:00
6:55 PM,32.0,22.1,67,29.91,10.0,WNW,9.2,-,N/A,,Overcast,290,2013-10-23 23:55:00
7:15 PM,32.0,21.0,64,29.92,10.0,WNW,10.4,-,N/A,,Overcast,300,2013-10-24 00:15:00
7:35 PM,32.0,21.9,66,29.92,10.0,WNW,4.6,-,N/A,,Overcast,300,2013-10-24 00:35:00
7:55 PM,32.0,22.1,67,29.92,10.0,WNW,6.9,-,N/A,,Overcast,290,2013-10-24 00:55:00
8:15 PM,32.0,22.1,67,29.92,10.0,WNW,11.5,-,N/A,,Overcast,300,2013-10-24 01:15:00
8:35 PM,31.6,22.6,69,29.92,10.0,WNW,8.1,-,N/A,,Overcast,300,2013-10-24 01:35:00
8:55 PM,31.5,23.0,71,29.92,10.0,WNW,6.9,-,N/A,,Overcast,300,2013-10-24 01:55:00
9:15 PM,31.5,22.8,70,29.92,10.0,WNW,10.4,-,N/A,,Overcast,290,2013-10-24 02:15:00
9:35 PM,31.6,23.0,70,29.92,10.0,WNW,9.2,-,N/A,Snow,Light Snow,300,2013-10-24 02:35:00
9:55 PM,31.5,23.7,73,29.92,10.0,NW,9.2,-,N/A,,Overcast,310,2013-10-24 02:55:00
10:15 PM,31.1,24.8,77,29.92,10.0,WNW,6.9,-,N/A,,Overcast,300,2013-10-24 03:15:00
10:35 PM,31.3,25.0,77,29.92,10.0,NW,9.2,-,N/A,,Overcast,310,2013-10-24 03:35:00
10:55 PM,31.1,24.8,77,29.92,10.0,NW,6.9,19.6,N/A,,Overcast,310,2013-10-24 03:55:00
11:15 PM,30.9,24.8,78,29.92,10.0,WNW,9.2,-,N/A,,Overcast,300,2013-10-24 04:15:00
11:35 PM,31.1,25.2,79,29.92,10.0,NW,8.1,16.1,N/A,,Overcast,310,2013-10-24 04:35:00
11:55 PM,31.1,25.3,79,29.92,10.0,WNW,5.8,-,N/A,,Overcast,300,2013-10-24 04:55:00